Time;durP1;ratioP1;P1;durP2;ratioP2;P2;SDS_P1;SDS_P2;PMS_P1;PMS_P2;Temp;Humidity;BMP_temperature;BMP_pressure;BME280_temperature;BME280_humidity;BME280_pressure;Samples;Min_cycle;Max_cycle;Signal;HPM_P1;HPM_P2
2023/12/08 00:00:12;;;;;;;10.48;9.18;;;;;;;;;;462377;28;1125;-71
2023/12/08 00:00:27;;;;;;;10.35;9.18;;;;;;;;;;478427;28;899;-71
2023/12/08 00:00:45;;;;;;;9.50;8.40;;;;;;;;;;468133;28;1254;-71
2023/12/08 00:01:01;;;;;;;9.30;8.30;;;;;;;;;;460528;28;1520;-71
2023/12/08 00:01:16;;;;;;;10.20;9.10;;;;;;;;;;464038;28;1588;-72
2023/12/08 00:01:32;;;;;;;10.67;9.40;;;;;;;;;;479206;28;969;-71
2023/12/08 00:01:47;;;;;;;11.13;9.75;;;;;;;;;;464186;28;1086;-71
2023/12/08 00:02:03;;;;;;;10.93;9.70;;;;;;;;;;462770;28;1073;-71
2023/12/08 00:02:18;;;;;;;11.23;9.70;;;;;;;;;;463901;28;1189;-71
2023/12/08 00:02:34;;;;;;;11.60;9.73;;;;;;;;;;479102;28;1121;-71
2023/12/08 00:02:50;;;;;;;11.90;9.50;;;;;;;;;;461148;28;1288;-71
2023/12/08 00:03:05;;;;;;;11.63;9.60;;;;;;;;;;462508;28;942;-71
2023/12/08 00:03:20;;;;;;;10.80;9.50;;;;;;;;;;468061;28;1107;-71
2023/12/08 00:03:36;;;;;;;10.43;9.33;;;;;;;;;;463199;28;903;-71
2023/12/08 00:03:51;;;;;;;11.07;9.65;;;;;;;;;;463380;28;994;-71
2023/12/08 00:04:07;;;;;;;11.57;9.97;;;;;;;;;;462725;28;1304;-71
2023/12/08 00:04:22;;;;;;;11.93;10.10;;;;;;;;;;472437;28;922;-71
2023/12/08 00:04:38;;;;;;;11.68;9.93;;;;;;;;;;463084;28;965;-71
2023/12/08 00:04:54;;;;;;;11.50;9.63;;;;;;;;;;461897;28;986;-71
2023/12/08 00:05:09;;;;;;;12.00;9.80;;;;;;;;;;462372;28;1062;-71
2023/12/08 00:05:25;;;;;;;11.77;10.05;;;;;;;;;;475799;28;950;-71
2023/12/08 00:05:40;;;;;;;11.13;9.70;;;;;;;;;;472266;28;912;-71
2023/12/08 00:05:56;;;;;;;10.98;9.63;;;;;;;;;;461913;28;858;-71
2023/12/08 00:06:11;;;;;;;11.07;9.57;;;;;;;;;;462751;28;1212;-71
2023/12/08 00:06:26;;;;;;;10.63;9.20;;;;;;;;;;479246;28;932;-71
2023/12/08 00:06:42;;;;;;;10.77;9.50;;;;;;;;;;471378;28;1176;-71
2023/12/08 00:06:57;;;;;;;11.40;10.03;;;;;;;;;;461982;28;1158;-71
2023/12/08 00:07:13;;;;;;;11.27;10.07;;;;;;;;;;461849;28;898;-71
2023/12/08 00:07:28;;;;;;;11.00;9.80;;;;;;;;;;479765;28;1046;-71
2023/12/08 00:07:44;;;;;;;10.98;9.73;;;;;;;;;;468462;28;1043;-71
2023/12/08 00:07:59;;;;;;;11.57;10.07;;;;;;;;;;462063;28;1024;-71
2023/12/08 00:08:14;;;;;;;12.23;10.23;;;;;;;;;;466724;28;1198;-71
2023/12/08 00:08:30;;;;;;;11.98;10.32;;;;;;;;;;482135;28;1206;-71
2023/12/08 00:08:45;;;;;;;12.57;10.23;;;;;;;;;;468810;28;1118;-71
2023/12/08 00:09:01;;;;;;;12.95;10.13;;;;;;;;;;462697;28;1187;-71
2023/12/08 00:09:16;;;;;;;12.20;10.07;;;;;;;;;;468773;28;1205;-71
2023/12/08 00:09:32;;;;;;;11.35;9.68;;;;;;;;;;463081;28;936;-71
2023/12/08 00:09:47;;;;;;;11.70;9.90;;;;;;;;;;462012;28;1376;-71
2023/12/08 00:10:03;;;;;;;12.93;10.70;;;;;;;;;;461036;28;1130;-71
2023/12/08 00:10:18;;;;;;;13.30;10.82;;;;;;;;;;468575;28;1164;-71
2023/12/08 00:10:34;;;;;;;13.23;10.43;;;;;;;;;;478731;28;971;-71
2023/12/08 00:10:49;;;;;;;12.93;10.33;;;;;;;;;;460744;28;1184;-71
2023/12/08 00:11:05;;;;;;;11.67;10.40;;;;;;;;;;461912;28;1990;-71
2023/12/08 00:11:21;;;;;;;11.55;10.35;;;;;;;;;;470968;28;1206;-71
2023/12/08 00:11:37;;;;;;;11.93;10.13;;;;;;;;;;476199;28;1034;-71
2023/12/08 00:11:52;;;;;;;12.25;10.50;;;;;;;;;;458854;28;1277;-71
2023/12/08 00:12:08;;;;;;;12.53;10.87;;;;;;;;;;461342;28;912;-71
2023/12/08 00:12:23;;;;;;;13.03;11.00;;;;;;;;;;474874;28;1041;-71
2023/12/08 00:12:39;;;;;;;12.07;10.53;;;;;;;;;;474583;28;907;-71
2023/12/08 00:12:54;;;;;;;11.57;10.10;;;;;;;;;;463585;28;1099;-71
2023/12/08 00:13:09;;;;;;;11.82;10.18;;;;;;;;;;462550;28;1223;-71
2023/12/08 00:13:25;;;;;;;11.00;9.80;;;;;;;;;;472643;28;887;-71
2023/12/08 00:13:41;;;;;;;10.93;9.80;;;;;;;;;;463500;28;982;-71
2023/12/08 00:13:57;;;;;;;11.70;10.43;;;;;;;;;;464369;28;1640;-71
2023/12/08 00:14:12;;;;;;;12.13;10.37;;;;;;;;;;464420;28;1406;-71
2023/12/08 00:14:27;;;;;;;11.70;9.70;;;;;;;;;;481604;28;1123;-71
2023/12/08 00:14:44;;;;;;;11.40;9.60;;;;;;;;;;472838;28;1149;-71
2023/12/08 00:14:59;;;;;;;11.60;10.02;;;;;;;;;;474951;28;935;-71
2023/12/08 00:15:15;;;;;;;12.18;10.35;;;;;;;;;;468161;28;1248;-72
2023/12/08 00:15:30;;;;;;;12.50;10.43;;;;;;;;;;466110;28;1036;-71
2023/12/08 00:15:47;;;;;;;11.68;10.20;;;;;;;;;;461623;28;1010;-71
2023/12/08 00:16:03;;;;;;;11.43;9.98;;;;;;;;;;463394;28;1131;-71
2023/12/08 00:16:18;;;;;;;13.30;10.27;;;;;;;;;;470696;28;1386;-71
2023/12/08 00:16:34;;;;;;;13.90;10.40;;;;;;;;;;482383;28;1045;-71
2023/12/08 00:16:49;;;;;;;12.43;10.27;;;;;;;;;;465838;28;978;-71
2023/12/08 00:17:05;;;;;;;11.65;10.35;;;;;;;;;;465017;28;1164;-71
2023/12/08 00:17:21;;;;;;;12.18;10.30;;;;;;;;;;472390;28;1291;-71
2023/12/08 00:17:36;;;;;;;11.70;10.05;;;;;;;;;;480626;28;1157;-71
2023/12/08 00:17:52;;;;;;;11.93;10.00;;;;;;;;;;463468;28;1018;-70
2023/12/08 00:18:07;;;;;;;12.43;10.05;;;;;;;;;;462032;28;1327;-71
2023/12/08 00:18:22;;;;;;;11.73;10.03;;;;;;;;;;476148;28;1067;-71
2023/12/08 00:18:38;;;;;;;10.63;9.50;;;;;;;;;;477678;28;1210;-71
2023/12/08 00:18:53;;;;;;;10.70;9.43;;;;;;;;;;461438;28;1539;-71
2023/12/08 00:19:17;;;;;;;10.03;8.93;;;;;;;;;;460102;28;1056;-71
2023/12/08 00:19:33;;;;;;;11.20;9.07;;;;;;;;;;479122;28;1609;-71
2023/12/08 00:19:48;;;;;;;11.50;9.93;;;;;;;;;;464827;28;918;-71
2023/12/08 00:20:06;;;;;;;12.07;10.38;;;;;;;;;;462323;28;1278;-71
2023/12/08 00:20:23;;;;;;;12.40;10.57;;;;;;;;;;470012;28;1087;-71
2023/12/08 00:20:38;;;;;;;12.50;10.18;;;;;;;;;;474005;28;1162;-71
2023/12/08 00:20:54;;;;;;;12.57;10.37;;;;;;;;;;458337;29;1096;-71
2023/12/08 00:21:09;;;;;;;12.07;10.32;;;;;;;;;;459516;28;908;-71
2023/12/08 00:21:25;;;;;;;12.37;10.47;;;;;;;;;;473374;28;955;-71
2023/12/08 00:21:40;;;;;;;12.57;10.25;;;;;;;;;;472879;28;1023;-71
2023/12/08 00:21:56;;;;;;;11.93;9.68;;;;;;;;;;460489;28;1136;-71
2023/12/08 00:22:12;;;;;;;11.50;9.90;;;;;;;;;;460876;28;1262;-71
2023/12/08 00:22:27;;;;;;;11.48;9.85;;;;;;;;;;475951;28;1173;-71
2023/12/08 00:22:42;;;;;;;11.17;9.60;;;;;;;;;;470906;28;910;-71
2023/12/08 00:22:58;;;;;;;10.63;9.32;;;;;;;;;;461967;28;847;-71
2023/12/08 00:23:14;;;;;;;11.07;9.60;;;;;;;;;;459220;28;1139;-71
2023/12/08 00:23:30;;;;;;;12.50;10.50;;;;;;;;;;480930;28;1011;-71
2023/12/08 00:23:45;;;;;;;11.80;10.17;;;;;;;;;;469866;28;1451;-71
2023/12/08 00:24:00;;;;;;;12.53;10.43;;;;;;;;;;463017;28;930;-71
2023/12/08 00:24:16;;;;;;;12.60;10.35;;;;;;;;;;468675;28;907;-71
2023/12/08 00:24:31;;;;;;;11.23;9.83;;;;;;;;;;483034;28;1284;-71
2023/12/08 00:24:47;;;;;;;11.68;10.32;;;;;;;;;;469663;28;1102;-71
2023/12/08 00:25:02;;;;;;;11.97;10.40;;;;;;;;;;463208;28;1210;-70
2023/12/08 00:25:17;;;;;;;11.43;10.23;;;;;;;;;;471141;28;1149;-71
2023/12/08 00:25:33;;;;;;;11.30;10.00;;;;;;;;;;483539;28;1118;-71
2023/12/08 00:25:49;;;;;;;11.20;9.57;;;;;;;;;;468632;28;940;-71
2023/12/08 00:26:04;;;;;;;11.80;9.93;;;;;;;;;;466111;28;1005;-71
2023/12/08 00:26:19;;;;;;;11.82;10.13;;;;;;;;;;469893;28;1166;-71
2023/12/08 00:26:35;;;;;;;11.57;9.93;;;;;;;;;;481587;28;1240;-71
2023/12/08 00:26:50;;;;;;;11.93;10.27;;;;;;;;;;464058;28;1091;-71
2023/12/08 00:27:07;;;;;;;13.07;10.53;;;;;;;;;;463012;28;1123;-71
2023/12/08 00:27:22;;;;;;;12.57;10.35;;;;;;;;;;468884;28;1401;-71
2023/12/08 00:27:37;;;;;;;12.87;10.70;;;;;;;;;;462502;28;1018;-71
2023/12/08 00:27:53;;;;;;;13.40;10.77;;;;;;;;;;462914;28;1187;-71
2023/12/08 00:28:08;;;;;;;11.83;10.00;;;;;;;;;;463071;28;930;-71
2023/12/08 00:28:24;;;;;;;11.93;9.93;;;;;;;;;;476261;28;908;-71
2023/12/08 00:28:39;;;;;;;11.90;10.20;;;;;;;;;;471212;28;1485;-71
2023/12/08 00:28:54;;;;;;;11.32;10.13;;;;;;;;;;461869;28;1128;-71
2023/12/08 00:29:10;;;;;;;11.37;10.17;;;;;;;;;;462904;28;1150;-71
2023/12/08 00:29:25;;;;;;;12.02;10.30;;;;;;;;;;475097;28;958;-71
2023/12/08 00:29:41;;;;;;;12.13;10.37;;;;;;;;;;461985;28;1193;-71
2023/12/08 00:29:56;;;;;;;12.17;10.33;;;;;;;;;;464270;28;1245;-71
2023/12/08 00:30:12;;;;;;;12.38;10.20;;;;;;;;;;464367;28;1283;-71
2023/12/08 00:30:27;;;;;;;12.37;10.47;;;;;;;;;;479904;28;878;-71
2023/12/08 00:30:43;;;;;;;12.48;10.73;;;;;;;;;;474655;28;1476;-71
2023/12/08 00:30:58;;;;;;;12.47;10.50;;;;;;;;;;461102;28;2007;-71
2023/12/08 00:31:13;;;;;;;12.68;10.50;;;;;;;;;;463103;28;1205;-71
2023/12/08 00:31:29;;;;;;;12.93;10.70;;;;;;;;;;479630;28;1130;-71
2023/12/08 00:31:44;;;;;;;12.50;10.60;;;;;;;;;;468363;28;1100;-71
2023/12/08 00:31:59;;;;;;;12.75;10.52;;;;;;;;;;459039;28;1133;-71
2023/12/08 00:32:15;;;;;;;12.17;10.20;;;;;;;;;;463811;28;1254;-71
2023/12/08 00:32:30;;;;;;;12.20;10.17;;;;;;;;;;480119;28;1095;-71
2023/12/08 00:32:46;;;;;;;12.93;10.52;;;;;;;;;;471208;28;1312;-71
2023/12/08 00:33:02;;;;;;;12.10;10.63;;;;;;;;;;464781;28;1670;-71
2023/12/08 00:33:17;;;;;;;11.50;10.15;;;;;;;;;;469045;28;1109;-72
2023/12/08 00:33:33;;;;;;;11.70;10.03;;;;;;;;;;481406;28;1009;-71
2023/12/08 00:33:48;;;;;;;12.60;10.75;;;;;;;;;;468212;28;970;-71
2023/12/08 00:34:03;;;;;;;13.17;11.10;;;;;;;;;;462383;28;1264;-71
2023/12/08 00:34:19;;;;;;;12.80;10.57;;;;;;;;;;464156;28;1189;-71
2023/12/08 00:34:34;;;;;;;12.45;10.38;;;;;;;;;;462391;28;1147;-71
2023/12/08 00:34:50;;;;;;;12.60;10.80;;;;;;;;;;461018;28;1217;-71
2023/12/08 00:35:05;;;;;;;12.23;10.40;;;;;;;;;;461940;28;874;-71
2023/12/08 00:35:22;;;;;;;11.70;10.10;;;;;;;;;;469932;28;1138;-71
2023/12/08 00:35:37;;;;;;;11.48;10.20;;;;;;;;;;478897;28;1075;-71
2023/12/08 00:35:52;;;;;;;12.07;10.23;;;;;;;;;;466168;28;1060;-71
2023/12/08 00:36:18;;;;;;;12.18;10.25;;;;;;;;;;473979;28;1429;-71
2023/12/08 00:36:33;;;;;;;12.90;10.88;;;;;;;;;;461960;28;1199;-71
2023/12/08 00:36:49;;;;;;;12.43;10.77;;;;;;;;;;462474;28;930;-71
2023/12/08 00:37:04;;;;;;;11.47;10.13;;;;;;;;;;461393;28;1331;-71
2023/12/08 00:37:20;;;;;;;11.20;10.00;;;;;;;;;;469024;28;996;-71
2023/12/08 00:37:36;;;;;;;13.35;10.60;;;;;;;;;;478238;28;1328;-71
2023/12/08 00:37:51;;;;;;;13.53;10.70;;;;;;;;;;464174;28;910;-71
2023/12/08 00:38:07;;;;;;;12.83;10.83;;;;;;;;;;462008;28;873;-71
2023/12/08 00:38:22;;;;;;;12.48;10.70;;;;;;;;;;472110;28;981;-71
2023/12/08 00:38:37;;;;;;;11.80;10.37;;;;;;;;;;461915;28;1035;-71
2023/12/08 00:38:54;;;;;;;12.93;11.00;;;;;;;;;;462823;28;1274;-71
2023/12/08 00:39:09;;;;;;;13.48;10.98;;;;;;;;;;465805;28;968;-71
2023/12/08 00:39:24;;;;;;;12.67;10.43;;;;;;;;;;482018;28;1156;-71
2023/12/08 00:39:40;;;;;;;12.87;10.57;;;;;;;;;;479300;28;1350;-71
2023/12/08 00:39:55;;;;;;;12.85;10.68;;;;;;;;;;461707;28;1088;-70
2023/12/08 00:40:11;;;;;;;12.52;10.70;;;;;;;;;;462620;28;869;-71
2023/12/08 00:40:26;;;;;;;12.40;10.57;;;;;;;;;;475098;28;957;-71
2023/12/08 00:40:42;;;;;;;12.57;10.93;;;;;;;;;;461355;28;1158;-71
2023/12/08 00:40:57;;;;;;;12.50;10.87;;;;;;;;;;461092;28;1106;-71
2023/12/08 00:41:13;;;;;;;12.38;10.50;;;;;;;;;;462200;28;1188;-71
2023/12/08 00:41:29;;;;;;;12.70;10.70;;;;;;;;;;479289;28;1238;-72
2023/12/08 00:41:44;;;;;;;13.07;10.75;;;;;;;;;;472167;28;1245;-71
2023/12/08 00:42:01;;;;;;;13.27;10.70;;;;;;;;;;462473;28;1001;-71
2023/12/08 00:42:17;;;;;;;13.50;10.55;;;;;;;;;;466375;28;1550;-71
2023/12/08 00:42:32;;;;;;;14.20;10.57;;;;;;;;;;475574;28;1264;-71
2023/12/08 00:42:47;;;;;;;13.77;10.40;;;;;;;;;;460700;28;1129;-71
2023/12/08 00:43:02;;;;;;;13.10;10.27;;;;;;;;;;460764;28;878;-71
2023/12/08 00:43:18;;;;;;;12.93;10.53;;;;;;;;;;466832;28;1329;-71
2023/12/08 00:43:33;;;;;;;12.07;10.40;;;;;;;;;;479706;28;1098;-71
2023/12/08 00:43:49;;;;;;;12.15;10.35;;;;;;;;;;466999;28;950;-71
2023/12/08 00:44:04;;;;;;;12.20;10.50;;;;;;;;;;464810;28;1383;-71
2023/12/08 00:44:20;;;;;;;12.13;10.35;;;;;;;;;;472294;28;888;-71
2023/12/08 00:44:35;;;;;;;12.20;10.33;;;;;;;;;;472638;28;1303;-71
2023/12/08 00:44:50;;;;;;;12.63;10.47;;;;;;;;;;461713;28;1204;-71
2023/12/08 00:45:06;;;;;;;12.73;10.55;;;;;;;;;;463591;28;893;-70
2023/12/08 00:45:21;;;;;;;12.33;10.80;;;;;;;;;;472025;28;1035;-71
2023/12/08 00:45:37;;;;;;;12.90;11.15;;;;;;;;;;478822;28;1052;-71
2023/12/08 00:45:53;;;;;;;13.15;11.07;;;;;;;;;;462200;28;1090;-71
2023/12/08 00:46:12;;;;;;;13.02;10.80;;;;;;;;;;461945;28;891;-71
2023/12/08 00:46:27;;;;;;;13.20;10.60;;;;;;;;;;477969;28;919;-71
2023/12/08 00:46:42;;;;;;;13.65;10.60;;;;;;;;;;475103;28;1094;-71
2023/12/08 00:46:58;;;;;;;13.87;10.83;;;;;;;;;;464184;28;1215;-71
2023/12/08 00:47:13;;;;;;;13.20;10.80;;;;;;;;;;465266;28;1072;-71
2023/12/08 00:47:28;;;;;;;13.40;10.67;;;;;;;;;;479143;28;1118;-71
2023/12/08 00:47:44;;;;;;;14.13;10.60;;;;;;;;;;465681;28;906;-71
2023/12/08 00:47:59;;;;;;;13.82;10.85;;;;;;;;;;463485;28;1148;-70
2023/12/08 00:48:14;;;;;;;12.40;10.60;;;;;;;;;;464720;28;1189;-71
2023/12/08 00:48:30;;;;;;;12.07;10.60;;;;;;;;;;478682;28;984;-71
2023/12/08 00:48:45;;;;;;;12.43;10.90;;;;;;;;;;470762;28;1225;-71
2023/12/08 00:49:01;;;;;;;12.17;10.43;;;;;;;;;;458644;28;1535;-71
2023/12/08 00:49:16;;;;;;;12.68;10.52;;;;;;;;;;464548;28;1057;-71
2023/12/08 00:49:32;;;;;;;13.67;10.80;;;;;;;;;;478618;28;1087;-71
2023/12/08 00:49:47;;;;;;;12.85;10.57;;;;;;;;;;468400;28;1276;-71
2023/12/08 00:50:03;;;;;;;12.13;10.60;;;;;;;;;;461938;28;1101;-70
2023/12/08 00:50:19;;;;;;;12.88;10.50;;;;;;;;;;464213;28;1051;-71
2023/12/08 00:50:34;;;;;;;13.60;10.55;;;;;;;;;;468103;28;1117;-71
2023/12/08 00:50:49;;;;;;;13.63;10.57;;;;;;;;;;460885;28;1043;-71
2023/12/08 00:51:05;;;;;;;13.07;10.67;;;;;;;;;;460473;28;1958;-71
2023/12/08 00:51:21;;;;;;;12.77;10.52;;;;;;;;;;469153;28;1195;-71
2023/12/08 00:51:37;;;;;;;13.37;10.67;;;;;;;;;;478086;28;1136;-71
2023/12/08 00:51:52;;;;;;;13.30;10.80;;;;;;;;;;464410;28;990;-71
2023/12/08 00:52:07;;;;;;;12.63;10.30;;;;;;;;;;462009;28;971;-71
2023/12/08 00:52:23;;;;;;;12.18;10.20;;;;;;;;;;474408;28;1311;-71
2023/12/08 00:52:38;;;;;;;12.10;10.30;;;;;;;;;;479666;28;1039;-71
2023/12/08 00:52:54;;;;;;;12.05;10.52;;;;;;;;;;461757;28;1327;-71
2023/12/08 00:53:09;;;;;;;11.97;10.53;;;;;;;;;;463848;28;924;-71
2023/12/08 00:53:25;;;;;;;11.95;10.25;;;;;;;;;;478247;28;1509;-71
2023/12/08 00:53:41;;;;;;;11.57;10.00;;;;;;;;;;479458;28;1052;-71
2023/12/08 00:53:57;;;;;;;12.10;10.20;;;;;;;;;;463373;28;1267;-71
2023/12/08 00:54:13;;;;;;;12.40;10.40;;;;;;;;;;461714;28;1074;-70
2023/12/08 00:54:28;;;;;;;12.15;10.30;;;;;;;;;;472988;28;1098;-72
2023/12/08 00:54:44;;;;;;;11.77;10.13;;;;;;;;;;471960;28;910;-71
2023/12/08 00:54:59;;;;;;;12.13;10.20;;;;;;;;;;461520;28;1632;-71
2023/12/08 00:55:15;;;;;;;12.52;10.40;;;;;;;;;;458489;28;1317;-71
2023/12/08 00:55:30;;;;;;;13.20;10.47;;;;;;;;;;473679;29;909;-71
2023/12/08 00:55:45;;;;;;;12.60;10.33;;;;;;;;;;469735;28;965;-71
2023/12/08 00:56:00;;;;;;;11.40;10.00;;;;;;;;;;459162;28;1162;-71
2023/12/08 00:56:16;;;;;;;11.83;10.30;;;;;;;;;;462435;28;1132;-71
2023/12/08 00:56:32;;;;;;;12.32;10.52;;;;;;;;;;480591;28;1111;-71
2023/12/08 00:56:47;;;;;;;12.40;10.30;;;;;;;;;;470526;28;1216;-71
2023/12/08 00:57:03;;;;;;;13.88;10.55;;;;;;;;;;462932;28;1026;-71
2023/12/08 00:57:19;;;;;;;13.75;10.57;;;;;;;;;;473182;28;1019;-71
2023/12/08 00:57:34;;;;;;;12.63;10.30;;;;;;;;;;483203;28;1139;-71
2023/12/08 00:57:49;;;;;;;12.90;10.20;;;;;;;;;;471944;28;1071;-70
2023/12/08 00:58:05;;;;;;;12.07;10.17;;;;;;;;;;464906;28;1042;-71
2023/12/08 00:58:20;;;;;;;12.67;10.40;;;;;;;;;;465575;28;1505;-71
2023/12/08 00:58:36;;;;;;;13.38;10.13;;;;;;;;;;461907;28;1006;-71
2023/12/08 00:58:52;;;;;;;12.02;9.90;;;;;;;;;;462347;28;1172;-71
2023/12/08 00:59:07;;;;;;;11.83;10.00;;;;;;;;;;461149;28;1138;-71
2023/12/08 00:59:23;;;;;;;11.93;10.05;;;;;;;;;;466888;28;1340;-71
2023/12/08 00:59:38;;;;;;;12.53;10.37;;;;;;;;;;477686;28;949;-71
2023/12/08 00:59:53;;;;;;;12.32;10.20;;;;;;;;;;460073;28;1197;-71
2023/12/08 01:00:09;;;;;;;11.93;10.10;;;;;;;;;;458562;28;1202;-71
2023/12/08 01:00:24;;;;;;;11.55;9.93;;;;;;;;;;468788;28;1148;-71
2023/12/08 01:00:40;;;;;;;11.17;9.50;;;;;;;;;;478241;28;1103;-71
2023/12/08 01:00:55;;;;;;;11.10;9.45;;;;;;;;;;459948;28;1010;-71
2023/12/08 01:01:11;;;;;;;11.93;9.77;;;;;;;;;;459945;28;1025;-71
2023/12/08 01:01:26;;;;;;;12.03;10.00;;;;;;;;;;468614;28;1340;-71
2023/12/08 01:01:41;;;;;;;11.90;9.85;;;;;;;;;;474181;28;1364;-71
2023/12/08 01:01:57;;;;;;;11.80;9.50;;;;;;;;;;458555;28;998;-71
2023/12/08 01:02:12;;;;;;;11.98;9.63;;;;;;;;;;459556;29;1390;-71
2023/12/08 01:02:27;;;;;;;12.20;9.70;;;;;;;;;;476596;29;1001;-71
2023/12/08 01:02:43;;;;;;;11.60;9.60;;;;;;;;;;471820;29;906;-71
2023/12/08 01:02:59;;;;;;;10.63;9.38;;;;;;;;;;469394;28;1290;-71
2023/12/08 01:03:14;;;;;;;10.40;9.23;;;;;;;;;;464531;28;1126;-70
2023/12/08 01:03:29;;;;;;;11.00;9.50;;;;;;;;;;465626;28;1305;-71
2023/12/08 01:03:45;;;;;;;11.53;9.70;;;;;;;;;;463057;28;1524;-71
2023/12/08 01:04:01;;;;;;;11.38;9.73;;;;;;;;;;461151;28;1102;-71
2023/12/08 01:04:16;;;;;;;12.10;10.20;;;;;;;;;;462970;28;957;-71
2023/12/08 01:04:31;;;;;;;12.67;10.43;;;;;;;;;;478375;28;1221;-71
2023/12/08 01:04:47;;;;;;;12.03;10.13;;;;;;;;;;472425;28;1016;-71
2023/12/08 01:05:03;;;;;;;12.18;10.00;;;;;;;;;;461224;28;1379;-71
2023/12/08 01:05:18;;;;;;;12.45;10.10;;;;;;;;;;462603;28;1364;-71
2023/12/08 01:05:34;;;;;;;11.73;10.05;;;;;;;;;;461564;28;910;-71
2023/12/08 01:05:49;;;;;;;12.60;10.17;;;;;;;;;;461891;28;1034;-71
2023/12/08 01:06:05;;;;;;;13.23;10.43;;;;;;;;;;461941;28;1347;-70
2023/12/08 01:06:20;;;;;;;12.25;10.32;;;;;;;;;;463460;28;1342;-71
2023/12/08 01:06:36;;;;;;;11.83;10.03;;;;;;;;;;481284;28;1119;-71
2023/12/08 01:06:51;;;;;;;11.65;9.80;;;;;;;;;;468712;28;1137;-71
2023/12/08 01:07:08;;;;;;;11.33;10.00;;;;;;;;;;465034;28;878;-71
2023/12/08 01:07:23;;;;;;;11.20;9.90;;;;;;;;;;473974;28;1612;-71
2023/12/08 01:07:39;;;;;;;11.70;9.97;;;;;;;;;;479774;28;1156;-71
2023/12/08 01:07:54;;;;;;;12.07;10.35;;;;;;;;;;463269;28;996;-71
2023/12/08 01:08:10;;;;;;;12.03;10.17;;;;;;;;;;461286;28;1146;-70
2023/12/08 01:08:25;;;;;;;11.52;9.77;;;;;;;;;;471952;28;1044;-71
2023/12/08 01:08:40;;;;;;;11.87;9.90;;;;;;;;;;461804;28;1149;-71
2023/12/08 01:08:56;;;;;;;11.65;9.77;;;;;;;;;;461141;28;1207;-71
2023/12/08 01:09:12;;;;;;;10.97;9.37;;;;;;;;;;461704;28;1479;-70
2023/12/08 01:09:28;;;;;;;10.70;9.50;;;;;;;;;;472862;28;1174;-71
2023/12/08 01:09:43;;;;;;;10.80;9.70;;;;;;;;;;465776;28;1024;-71
2023/12/08 01:10:00;;;;;;;11.50;10.00;;;;;;;;;;461459;28;1358;-71
2023/12/08 01:10:15;;;;;;;11.27;9.68;;;;;;;;;;463019;28;1440;-71
2023/12/08 01:10:31;;;;;;;11.05;9.48;;;;;;;;;;476093;28;1078;-71
2023/12/08 01:10:46;;;;;;;11.13;9.63;;;;;;;;;;474130;28;1497;-71
2023/12/08 01:11:02;;;;;;;11.68;9.90;;;;;;;;;;462461;28;2038;-71
2023/12/08 01:11:17;;;;;;;12.03;9.80;;;;;;;;;;469580;28;1095;-71
2023/12/08 01:11:32;;;;;;;12.87;9.97;;;;;;;;;;463205;28;1419;-71
2023/12/08 01:11:48;;;;;;;13.48;9.68;;;;;;;;;;463580;28;894;-70
2023/12/08 01:12:04;;;;;;;12.33;9.53;;;;;;;;;;462877;28;1024;-71
2023/12/08 01:12:19;;;;;;;11.82;10.00;;;;;;;;;;470777;28;1169;-71
2023/12/08 01:12:35;;;;;;;11.70;9.90;;;;;;;;;;474006;28;937;-71
2023/12/08 01:12:51;;;;;;;10.85;9.32;;;;;;;;;;465437;28;1210;-71
2023/12/08 01:13:06;;;;;;;10.77;9.20;;;;;;;;;;464203;28;1059;-71
2023/12/08 01:13:21;;;;;;;10.90;9.23;;;;;;;;;;464706;28;1090;-71
2023/12/08 01:13:37;;;;;;;11.27;9.30;;;;;;;;;;476889;28;1250;-71
2023/12/08 01:13:52;;;;;;;11.50;9.73;;;;;;;;;;458274;28;1103;-71
2023/12/08 01:14:07;;;;;;;11.57;9.73;;;;;;;;;;459376;28;1040;-71
2023/12/08 01:14:23;;;;;;;11.37;9.37;;;;;;;;;;466055;28;1341;-71
2023/12/08 01:14:38;;;;;;;10.80;9.40;;;;;;;;;;478527;28;1154;-71
2023/12/08 01:14:54;;;;;;;10.83;9.67;;;;;;;;;;465424;28;1014;-71
2023/12/08 01:15:09;;;;;;;11.37;9.80;;;;;;;;;;462467;28;1124;-71
2023/12/08 01:15:25;;;;;;;10.82;9.35;;;;;;;;;;477718;28;1101;-71
2023/12/08 01:15:40;;;;;;;10.13;8.97;;;;;;;;;;480750;28;1304;-71
2023/12/08 01:15:55;;;;;;;10.65;9.10;;;;;;;;;;464021;28;1092;-71
2023/12/08 01:16:11;;;;;;;10.90;9.20;;;;;;;;;;460404;28;1076;-71
2023/12/08 01:16:26;;;;;;;10.60;9.02;;;;;;;;;;474951;28;1194;-71
2023/12/08 01:16:43;;;;;;;10.93;9.03;;;;;;;;;;477802;28;1187;-71
2023/12/08 01:16:58;;;;;;;10.80;9.40;;;;;;;;;;457885;28;1184;-71
2023/12/08 01:17:13;;;;;;;10.30;9.10;;;;;;;;;;460777;28;1259;-71
2023/12/08 01:17:29;;;;;;;10.07;8.80;;;;;;;;;;476950;28;1107;-71
2023/12/08 01:17:44;;;;;;;10.45;8.93;;;;;;;;;;473123;28;1108;-71
2023/12/08 01:18:00;;;;;;;10.07;8.47;;;;;;;;;;459413;28;1031;-71
2023/12/08 01:18:15;;;;;;;10.07;8.37;;;;;;;;;;460788;28;1087;-71
2023/12/08 01:18:30;;;;;;;10.57;8.60;;;;;;;;;;461713;28;1249;-71
2023/12/08 01:18:46;;;;;;;10.27;8.80;;;;;;;;;;462228;28;859;-71
2023/12/08 01:19:01;;;;;;;10.38;8.90;;;;;;;;;;461943;28;1208;-71
2023/12/08 01:19:16;;;;;;;10.47;8.40;;;;;;;;;;460259;28;1212;-71
2023/12/08 01:19:32;;;;;;;10.10;8.40;;;;;;;;;;476580;28;929;-71
2023/12/08 01:19:47;;;;;;;10.32;8.68;;;;;;;;;;472472;28;1127;-71
2023/12/08 01:20:04;;;;;;;10.60;8.50;;;;;;;;;;460625;28;1079;-71
2023/12/08 01:20:21;;;;;;;10.00;8.63;;;;;;;;;;470745;28;1286;-71
2023/12/08 01:20:36;;;;;;;10.63;8.85;;;;;;;;;;479852;28;1174;-71
2023/12/08 01:20:53;;;;;;;10.73;8.60;;;;;;;;;;464925;28;961;-71
2023/12/08 01:21:09;;;;;;;10.27;8.40;;;;;;;;;;465462;28;920;-71
2023/12/08 01:21:24;;;;;;;10.45;8.70;;;;;;;;;;476025;28;1070;-71
2023/12/08 01:21:40;;;;;;;10.10;8.50;;;;;;;;;;481333;28;1034;-71
2023/12/08 01:21:55;;;;;;;10.05;8.38;;;;;;;;;;466660;28;1389;-71
2023/12/08 01:22:10;;;;;;;10.77;8.70;;;;;;;;;;462373;28;1237;-70
2023/12/08 01:22:27;;;;;;;11.02;8.65;;;;;;;;;;462913;28;879;-71
2023/12/08 01:22:42;;;;;;;11.05;8.50;;;;;;;;;;461781;28;1215;-71
2023/12/08 01:22:58;;;;;;;10.27;8.40;;;;;;;;;;461285;28;1038;-71
2023/12/08 01:23:13;;;;;;;10.53;8.60;;;;;;;;;;462465;28;994;-71
2023/12/08 01:23:28;;;;;;;12.03;8.93;;;;;;;;;;463123;28;956;-71
2023/12/08 01:23:44;;;;;;;11.45;8.75;;;;;;;;;;464099;28;1197;-71
2023/12/08 01:23:59;;;;;;;10.33;8.43;;;;;;;;;;463245;28;918;-71
2023/12/08 01:24:15;;;;;;;11.07;8.60;;;;;;;;;;467284;28;968;-71
2023/12/08 01:24:30;;;;;;;11.10;8.80;;;;;;;;;;481349;28;1565;-71
2023/12/08 01:24:45;;;;;;;10.23;8.60;;;;;;;;;;467874;28;1014;-71
2023/12/08 01:25:01;;;;;;;10.05;8.40;;;;;;;;;;464613;28;893;-71
2023/12/08 01:25:17;;;;;;;9.68;8.32;;;;;;;;;;467641;28;1137;-71
2023/12/08 01:25:32;;;;;;;9.33;8.20;;;;;;;;;;463364;28;1106;-71
2023/12/08 01:25:48;;;;;;;9.27;8.10;;;;;;;;;;461862;28;922;-71
2023/12/08 01:26:08;;;;;;;9.20;8.20;;;;;;;;;;462259;28;1104;-71
2023/12/08 01:26:24;;;;;;;9.30;8.20;;;;;;;;;;474910;28;1613;-71
2023/12/08 01:26:43;;;;;;;10.27;8.40;;;;;;;;;;482360;28;1074;-71
2023/12/08 01:26:59;;;;;;;11.38;8.85;;;;;;;;;;462517;28;2129;-71
2023/12/08 01:27:14;;;;;;;10.20;8.47;;;;;;;;;;464103;28;1189;-71
2023/12/08 01:27:29;;;;;;;9.57;8.25;;;;;;;;;;460904;28;1086;-71
2023/12/08 01:27:45;;;;;;;10.17;8.63;;;;;;;;;;461002;28;1123;-71
2023/12/08 01:28:00;;;;;;;10.73;8.80;;;;;;;;;;461259;28;1268;-71
2023/12/08 01:28:15;;;;;;;10.23;8.55;;;;;;;;;;462638;28;877;-71
2023/12/08 01:28:31;;;;;;;9.93;8.40;;;;;;;;;;461092;28;1137;-71
2023/12/08 01:28:46;;;;;;;10.43;8.50;;;;;;;;;;460653;28;1027;-71
2023/12/08 01:29:02;;;;;;;10.57;8.60;;;;;;;;;;459233;28;907;-71
2023/12/08 01:29:17;;;;;;;10.70;8.80;;;;;;;;;;460497;28;1086;-71
2023/12/08 01:29:32;;;;;;;9.93;8.60;;;;;;;;;;460933;28;1189;-71
2023/12/08 01:29:47;;;;;;;9.50;8.47;;;;;;;;;;461014;28;1823;-71
2023/12/08 01:30:04;;;;;;;9.93;8.70;;;;;;;;;;461099;28;1014;-71
2023/12/08 01:30:19;;;;;;;9.77;8.43;;;;;;;;;;467359;28;1012;-71
2023/12/08 01:30:34;;;;;;;10.57;8.80;;;;;;;;;;463605;28;1116;-71
2023/12/08 01:30:50;;;;;;;11.03;8.93;;;;;;;;;;463539;28;886;-71
2023/12/08 01:31:05;;;;;;;10.37;8.43;;;;;;;;;;463777;28;1997;-71
2023/12/08 01:31:21;;;;;;;10.63;8.60;;;;;;;;;;466136;28;1026;-71
2023/12/08 01:31:36;;;;;;;10.23;8.82;;;;;;;;;;463606;28;1228;-71
2023/12/08 01:31:51;;;;;;;9.53;8.53;;;;;;;;;;465208;28;960;-71
2023/12/08 01:32:07;;;;;;;9.63;8.37;;;;;;;;;;464191;28;1029;-72
2023/12/08 01:32:22;;;;;;;10.00;8.48;;;;;;;;;;461750;28;1235;-71
2023/12/08 01:32:37;;;;;;;10.10;8.47;;;;;;;;;;460882;28;942;-71
2023/12/08 01:32:53;;;;;;;10.87;8.70;;;;;;;;;;460462;28;1161;-71
2023/12/08 01:33:08;;;;;;;10.32;8.70;;;;;;;;;;461466;28;1174;-71
2023/12/08 01:33:23;;;;;;;9.67;8.53;;;;;;;;;;461534;28;1180;-71
2023/12/08 01:33:39;;;;;;;9.63;8.40;;;;;;;;;;459671;28;1496;-71
2023/12/08 01:33:54;;;;;;;9.27;8.20;;;;;;;;;;459956;28;918;-71
2023/12/08 01:34:09;;;;;;;9.03;8.10;;;;;;;;;;460916;28;1041;-71
2023/12/08 01:34:25;;;;;;;9.40;8.17;;;;;;;;;;462755;28;1034;-71
2023/12/08 01:34:40;;;;;;;10.33;8.47;;;;;;;;;;461415;28;1195;-71